Time;durP1;ratioP1;P1;durP2;ratioP2;P2;SDS_P1;SDS_P2;PMS_P1;PMS_P2;Temp;Humidity;BMP_temperature;BMP_pressure;BME280_temperature;BME280_humidity;BME280_pressure;Samples;Min_cycle;Max_cycle;Signal;HPM_P1;HPM_P2
2021/12/03 00:02:25;;;;;;;1.45;1.00;;;12.60;63.00;;;;;;5018556;28;20089;-71
2021/12/03 00:04:51;;;;;;;1.33;0.82;;;12.70;63.10;;;;;;5003771;28;20022;-72
2021/12/03 00:07:17;;;;;;;0.95;0.85;;;12.60;62.90;;;;;;5003942;28;20119;-71
2021/12/03 00:09:43;;;;;;;1.08;1.00;;;12.60;63.00;;;;;;5018866;28;20225;-71
2021/12/03 00:12:09;;;;;;;1.10;1.00;;;12.60;63.00;;;;;;5003725;28;20025;-72
2021/12/03 00:14:35;;;;;;;1.10;1.00;;;12.70;63.00;;;;;;5003699;28;20027;-71
2021/12/03 00:17:02;;;;;;;1.33;1.10;;;12.60;63.00;;;;;;5003583;28;20030;-72
2021/12/03 00:19:28;;;;;;;0.98;0.88;;;12.60;63.10;;;;;;5003545;28;20045;-71
2021/12/03 00:21:54;;;;;;;1.17;1.00;;;12.60;63.10;;;;;;5018655;28;20018;-71
2021/12/03 00:24:20;;;;;;;0.98;0.80;;;12.60;63.00;;;;;;5018547;28;20108;-71
2021/12/03 00:26:46;;;;;;;1.13;1.00;;;12.60;63.00;;;;;;5003812;28;20030;-71
2021/12/03 00:29:12;;;;;;;0.88;0.68;;;12.60;63.00;;;;;;5002098;28;20041;-72
2021/12/03 00:31:38;;;;;;;1.67;1.00;;;12.60;63.10;;;;;;5003386;28;20054;-72
2021/12/03 00:34:04;;;;;;;1.02;0.80;;;12.60;63.10;;;;;;5003322;28;20022;-71
2021/12/03 00:36:30;;;;;;;1.10;1.00;;;12.60;63.20;;;;;;5018415;28;20028;-71
2021/12/03 00:38:59;;;;;;;0.75;0.65;;;12.60;63.10;;;;;;5018282;28;20124;-71
2021/12/03 00:41:28;;;;;;;0.85;0.82;;;12.60;63.20;;;;;;5003315;28;20171;-71
2021/12/03 00:43:54;;;;;;;1.13;1.02;;;12.60;63.00;;;;;;5002003;28;20018;-72
2021/12/03 00:46:22;;;;;;;1.02;0.93;;;12.60;63.00;;;;;;5018255;28;20046;-72
2021/12/03 00:48:52;;;;;;;0.70;0.70;;;12.60;63.00;;;;;;5018263;28;20021;-71
2021/12/03 00:51:19;;;;;;;1.00;0.90;;;12.60;63.10;;;;;;5003171;28;20053;-71
2021/12/03 00:53:46;;;;;;;1.20;0.95;;;12.60;63.10;;;;;;5001717;28;20357;-71
2021/12/03 00:56:12;;;;;;;1.10;0.90;;;12.60;63.10;;;;;;5003017;28;20038;-72
2021/12/03 00:58:39;;;;;;;1.27;1.08;;;12.60;63.10;;;;;;5018064;28;20015;-72
2021/12/03 01:01:07;;;;;;;0.90;0.75;;;12.60;63.00;;;;;;5002868;28;20049;-72
2021/12/03 01:03:36;;;;;;;1.70;1.00;;;12.60;63.00;;;;;;5002885;28;20057;-74
2021/12/03 01:06:02;;;;;;;1.10;1.00;;;12.70;63.10;;;;;;5002709;28;20294;-72
2021/12/03 01:08:28;;;;;;;0.98;0.85;;;12.60;63.10;;;;;;5002854;28;20026;-73
2021/12/03 01:10:54;;;;;;;1.08;0.98;;;12.60;63.20;;;;;;5017836;28;20112;-72
2021/12/03 01:13:20;;;;;;;0.75;0.75;;;12.60;63.80;;;;;;5002764;28;20092;-72
2021/12/03 01:15:47;;;;;;;1.00;0.90;;;12.60;63.20;;;;;;5001434;28;20106;-72
2021/12/03 01:18:13;;;;;;;1.20;0.90;;;12.60;63.20;;;;;;5002645;28;20027;-71
2021/12/03 01:20:42;;;;;;;1.48;1.00;;;12.60;63.20;;;;;;5017557;28;20022;-72
2021/12/03 01:23:09;;;;;;;0.75;0.70;;;12.60;63.20;;;;;;5002581;28;20027;-71
2021/12/03 01:25:35;;;;;;;1.40;1.00;;;12.60;63.20;;;;;;5002379;28;20026;-72
2021/12/03 01:28:01;;;;;;;1.08;0.95;;;12.70;63.20;;;;;;5002458;28;20041;-72
2021/12/03 01:30:28;;;;;;;1.40;0.93;;;12.60;63.10;;;;;;5002467;28;20030;-71
2021/12/03 01:32:56;;;;;;;0.80;0.80;;;12.60;63.10;;;;;;5001027;28;20367;-71
2021/12/03 01:35:22;;;;;;;1.17;1.08;;;12.60;63.20;;;;;;5017396;28;20330;-71
2021/12/03 01:37:48;;;;;;;1.10;0.80;;;12.60;63.10;;;;;;5002294;28;20093;-71
2021/12/03 01:40:18;;;;;;;0.80;0.80;;;12.60;63.20;;;;;;5017377;28;20030;-72
2021/12/03 01:42:44;;;;;;;1.00;0.90;;;12.60;63.10;;;;;;5002263;28;20029;-72
2021/12/03 01:45:14;;;;;;;1.10;0.80;;;12.60;63.20;;;;;;5002177;28;20037;-72
2021/12/03 01:47:42;;;;;;;0.70;0.68;;;12.60;63.20;;;;;;5017130;28;20022;-72
2021/12/03 01:50:09;;;;;;;0.50;0.50;;;12.60;63.30;;;;;;5002082;28;20030;-72
2021/12/03 01:52:35;;;;;;;0.85;0.85;;;12.60;63.20;;;;;;5002029;28;20022;-72
2021/12/03 01:55:02;;;;;;;1.15;0.95;;;12.60;63.20;;;;;;5016881;28;20657;-71
2021/12/03 01:57:28;;;;;;;1.00;0.88;;;12.60;63.20;;;;;;5001924;28;20022;-71
2021/12/03 01:59:54;;;;;;;0.70;0.70;;;12.60;63.20;;;;;;5001806;28;20034;-73
2021/12/03 02:02:20;;;;;;;0.70;0.70;;;12.60;63.20;;;;;;5001927;28;20026;-71
2021/12/03 02:04:45;;;;;;;0.73;0.73;;;12.60;63.20;;;;;;5016903;28;20034;-71
2021/12/03 02:07:11;;;;;;;0.95;0.82;;;12.60;63.20;;;;;;5016776;28;20030;-72
2021/12/03 02:09:37;;;;;;;1.15;1.00;;;12.60;63.10;;;;;;5016876;28;20048;-72
2021/12/03 02:12:03;;;;;;;1.08;0.90;;;12.60;63.10;;;;;;5000381;28;20110;-73
2021/12/03 02:14:28;;;;;;;0.93;0.82;;;12.60;63.10;;;;;;5000376;28;20033;-72
2021/12/03 02:16:54;;;;;;;0.90;0.90;;;12.60;63.10;;;;;;5000996;28;20060;-72
2021/12/03 02:19:20;;;;;;;1.33;1.00;;;12.60;63.10;;;;;;5001468;28;20475;-72
2021/12/03 02:21:46;;;;;;;1.48;1.20;;;12.60;63.10;;;;;;5001529;28;20023;-71
2021/12/03 02:24:12;;;;;;;1.55;1.00;;;12.60;63.10;;;;;;5000247;28;20027;-73
2021/12/03 02:26:39;;;;;;;1.15;1.00;;;12.60;63.20;;;;;;5016536;28;20230;-73
2021/12/03 02:29:05;;;;;;;0.77;0.73;;;12.60;63.20;;;;;;5001468;28;20018;-72
2021/12/03 02:31:30;;;;;;;0.90;0.80;;;12.60;63.30;;;;;;5001339;28;20041;-72
2021/12/03 02:33:56;;;;;;;1.00;0.75;;;12.60;63.30;;;;;;5000066;28;20030;-71
2021/12/03 02:36:23;;;;;;;0.98;0.90;;;12.60;63.30;;;;;;5001274;28;20030;-71
2021/12/03 02:38:49;;;;;;;1.00;0.88;;;12.60;63.20;;;;;;5001145;28;20038;-71
2021/12/03 02:41:15;;;;;;;0.88;0.80;;;12.60;63.30;;;;;;5016291;28;20026;-72
2021/12/03 02:43:41;;;;;;;0.98;0.77;;;12.60;63.30;;;;;;5001161;28;20018;-72
2021/12/03 02:46:07;;;;;;;1.13;0.95;;;12.60;63.20;;;;;;5001168;28;20074;-70
2021/12/03 02:48:35;;;;;;;0.90;0.80;;;12.60;63.30;;;;;;5001125;28;20353;-71
2021/12/03 02:51:02;;;;;;;0.70;0.70;;;12.60;63.30;;;;;;5001077;28;20030;-72
2021/12/03 02:53:28;;;;;;;1.35;0.88;;;12.60;63.30;;;;;;4999547;28;20177;-73
2021/12/03 02:55:54;;;;;;;1.30;1.08;;;12.60;63.20;;;;;;5000892;28;20314;-73
2021/12/03 02:58:20;;;;;;;1.23;1.05;;;12.60;63.20;;;;;;5000898;28;20045;-71
2021/12/03 03:00:50;;;;;;;1.00;0.90;;;12.60;63.20;;;;;;5000829;28;20242;-70
2021/12/03 03:03:15;;;;;;;1.02;0.93;;;12.60;63.30;;;;;;5000952;28;20042;-72
2021/12/03 03:05:46;;;;;;;1.38;0.98;;;12.60;63.80;;;;;;4999585;28;20041;-73
2021/12/03 03:08:11;;;;;;;1.02;0.93;;;12.60;63.30;;;;;;5000792;28;20022;-72
2021/12/03 03:10:41;;;;;;;1.45;0.95;;;12.60;63.20;;;;;;5015801;28;20050;-72
2021/12/03 03:13:07;;;;;;;1.35;0.80;;;12.60;63.20;;;;;;5016065;28;20338;-71
2021/12/03 03:15:33;;;;;;;0.73;0.70;;;12.60;63.80;;;;;;4999364;28;20030;-72
2021/12/03 03:18:14;;;;;;;0.98;0.80;;;12.60;63.30;;;;;;5000562;28;20026;-72
2021/12/03 03:20:42;;;;;;;1.08;0.98;;;12.60;63.30;;;;;;5000540;28;20339;-71
2021/12/03 03:23:09;;;;;;;1.25;1.00;;;12.60;63.30;;;;;;5000518;28;20026;-72
2021/12/03 03:25:36;;;;;;;0.85;0.70;;;12.60;63.30;;;;;;5015568;28;20026;-71
2021/12/03 03:28:02;;;;;;;1.10;1.00;;;12.60;63.30;;;;;;5015494;28;20022;-72
2021/12/03 03:30:28;;;;;;;1.25;1.15;;;12.60;63.30;;;;;;5014854;28;20026;-72
2021/12/03 03:32:54;;;;;;;1.40;1.17;;;12.60;63.30;;;;;;5000389;28;20022;-71
2021/12/03 03:35:20;;;;;;;0.90;0.80;;;12.60;63.30;;;;;;5000353;28;20054;-72
2021/12/03 03:37:46;;;;;;;0.95;0.90;;;12.60;63.30;;;;;;5015463;28;20033;-72
2021/12/03 03:40:12;;;;;;;1.10;0.93;;;12.60;63.30;;;;;;5000196;28;20084;-71
2021/12/03 03:42:38;;;;;;;1.25;1.10;;;12.60;63.30;;;;;;5000301;28;20561;-72
2021/12/03 03:45:08;;;;;;;0.70;0.70;;;12.60;63.20;;;;;;4999011;28;20022;-72
2021/12/03 03:47:35;;;;;;;1.13;0.90;;;12.60;63.20;;;;;;5000223;28;20018;-71
2021/12/03 03:50:01;;;;;;;0.93;0.93;;;12.60;63.20;;;;;;5000242;28;20030;-71
2021/12/03 03:52:28;;;;;;;2.20;0.80;;;12.60;63.20;;;;;;5000245;28;20307;-72
2021/12/03 03:54:54;;;;;;;0.60;0.60;;;12.60;63.20;;;;;;5015212;28;20081;-70
2021/12/03 03:57:20;;;;;;;0.77;0.77;;;12.60;63.20;;;;;;5000129;28;20026;-72
2021/12/03 03:59:45;;;;;;;1.08;0.98;;;12.60;63.30;;;;;;5015449;28;20042;-71
2021/12/03 04:02:11;;;;;;;1.27;0.80;;;12.60;63.30;;;;;;5015271;28;20018;-72
2021/12/03 04:04:37;;;;;;;0.90;0.90;;;12.60;63.30;;;;;;4998839;28;20250;-71
2021/12/03 04:07:03;;;;;;;0.80;0.80;;;12.60;63.30;;;;;;5000024;28;20077;-72
2021/12/03 04:09:29;;;;;;;0.95;0.80;;;12.60;63.30;;;;;;5015198;28;20314;-72
2021/12/03 04:11:55;;;;;;;1.00;0.90;;;12.60;63.30;;;;;;5000019;28;20031;-71
2021/12/03 04:14:21;;;;;;;0.80;0.80;;;12.60;63.30;;;;;;5000102;28;20330;-72
2021/12/03 04:16:48;;;;;;;1.00;0.90;;;12.60;63.30;;;;;;5000040;28;20376;-70
2021/12/03 04:19:14;;;;;;;1.20;1.10;;;12.60;63.30;;;;;;4998609;28;20068;-71
2021/12/03 04:21:40;;;;;;;0.80;0.63;;;12.60;63.30;;;;;;4999859;28;20025;-72
2021/12/03 04:24:06;;;;;;;1.23;1.13;;;12.60;63.30;;;;;;4999959;28;20089;-71
2021/12/03 04:26:32;;;;;;;0.68;0.68;;;12.60;63.20;;;;;;4999925;28;20072;-72
2021/12/03 04:28:58;;;;;;;0.98;0.88;;;12.60;63.30;;;;;;4998654;28;20337;-71
2021/12/03 04:31:24;;;;;;;0.73;0.73;;;12.60;63.30;;;;;;4999867;28;20018;-71
2021/12/03 04:33:50;;;;;;;1.10;1.00;;;12.60;63.30;;;;;;4999886;28;20028;-71
2021/12/03 04:36:16;;;;;;;1.35;1.02;;;12.60;63.30;;;;;;4999852;28;20026;-71
2021/12/03 04:38:42;;;;;;;1.23;1.10;;;12.50;63.30;;;;;;4999820;28;20045;-72
2021/12/03 04:41:08;;;;;;;1.30;1.10;;;12.50;63.30;;;;;;5016759;28;20353;-72
2021/12/03 04:43:34;;;;;;;1.05;0.95;;;12.60;63.40;;;;;;5003441;28;20022;-72
2021/12/03 04:45:59;;;;;;;1.08;0.95;;;12.60;63.30;;;;;;5003357;28;20029;-72
2021/12/03 04:48:25;;;;;;;1.25;0.93;;;12.60;63.30;;;;;;5003386;28;20037;-71
2021/12/03 04:50:51;;;;;;;1.88;1.17;;;12.60;63.30;;;;;;5003274;28;20321;-72
2021/12/03 04:53:19;;;;;;;1.20;0.95;;;12.60;63.20;;;;;;5003098;28;20085;-72
2021/12/03 04:55:45;;;;;;;1.23;1.00;;;12.60;63.30;;;;;;5018323;28;20050;-71
2021/12/03 04:58:11;;;;;;;1.10;1.00;;;12.60;63.30;;;;;;5003306;28;20347;-71
2021/12/03 05:00:39;;;;;;;1.00;0.90;;;12.60;63.20;;;;;;5003162;28;20029;-71
2021/12/03 05:03:05;;;;;;;1.25;1.00;;;12.60;63.20;;;;;;5003102;28;20112;-72
2021/12/03 05:05:32;;;;;;;0.88;0.88;;;12.60;63.20;;;;;;5002986;28;20042;-71
2021/12/03 05:08:01;;;;;;;0.82;0.82;;;12.60;63.20;;;;;;5003022;28;20138;-72
2021/12/03 05:10:30;;;;;;;1.65;1.02;;;12.60;63.30;;;;;;5003000;28;20064;-72
2021/12/03 05:13:21;;;;;;;1.05;0.93;;;12.60;63.30;;;;;;5002817;28;20038;-71
2021/12/03 05:15:48;;;;;;;1.30;1.00;;;12.50;63.30;;;;;;5002527;28;20038;-72
2021/12/03 05:18:16;;;;;;;1.20;1.10;;;12.50;63.40;;;;;;5002854;28;20026;-72
2021/12/03 05:20:43;;;;;;;1.33;1.02;;;12.50;63.40;;;;;;5002671;28;20073;-71
2021/12/03 05:23:09;;;;;;;1.08;0.98;;;12.50;63.40;;;;;;5017761;28;20072;-72
2021/12/03 05:25:36;;;;;;;2.47;0.88;;;12.60;63.40;;;;;;5002585;28;20026;-72
2021/12/03 05:28:03;;;;;;;2.10;0.95;;;12.60;63.40;;;;;;5002676;28;20033;-70
2021/12/03 05:30:30;;;;;;;1.50;0.80;;;12.50;63.30;;;;;;5002521;28;20028;-72
2021/12/03 05:32:56;;;;;;;1.00;1.00;;;12.50;63.30;;;;;;5002491;28;20275;-71
2021/12/03 05:35:23;;;;;;;1.23;1.02;;;12.60;63.30;;;;;;5002413;28;20026;-72
2021/12/03 05:37:49;;;;;;;1.27;1.02;;;12.60;63.30;;;;;;5002408;28;20323;-73
2021/12/03 05:40:16;;;;;;;0.73;0.73;;;12.50;63.30;;;;;;5002250;28;20023;-72
2021/12/03 05:42:44;;;;;;;1.95;1.33;;;12.60;63.40;;;;;;5002355;28;20101;-72
2021/12/03 05:45:11;;;;;;;3.25;1.10;;;12.50;63.30;;;;;;5002239;28;20014;-71
2021/12/03 05:47:37;;;;;;;1.23;1.10;;;12.60;63.30;;;;;;5002195;28;20033;-72
2021/12/03 05:50:05;;;;;;;0.85;0.85;;;12.50;63.30;;;;;;5002152;28;20126;-71
2021/12/03 05:52:31;;;;;;;1.17;0.97;;;12.50;63.30;;;;;;5001116;28;20053;-72
2021/12/03 05:54:57;;;;;;;1.77;1.20;;;12.60;63.40;;;;;;5000701;28;20279;-72
2021/12/03 05:57:22;;;;;;;1.20;1.10;;;12.50;63.30;;;;;;5002008;28;20018;-70
2021/12/03 05:59:49;;;;;;;1.15;0.90;;;12.50;63.40;;;;;;5000630;28;20038;-72
2021/12/03 06:02:14;;;;;;;0.82;0.82;;;12.50;63.40;;;;;;5001920;28;20018;-72
2021/12/03 06:04:40;;;;;;;1.05;0.98;;;12.50;63.30;;;;;;5016945;28;20385;-72
2021/12/03 06:07:06;;;;;;;0.80;0.80;;;12.50;63.30;;;;;;5001818;28;20022;-72
2021/12/03 06:09:32;;;;;;;1.05;0.90;;;12.50;63.30;;;;;;5001694;28;20032;-72
2021/12/03 06:11:59;;;;;;;1.17;1.02;;;12.50;63.40;;;;;;5001807;28;20050;-72
2021/12/03 06:14:25;;;;;;;1.15;1.00;;;12.60;63.50;;;;;;5016750;28;20036;-72
2021/12/03 06:16:51;;;;;;;1.30;1.20;;;12.50;63.30;;;;;;5001642;28;20030;-72
2021/12/03 06:19:16;;;;;;;0.93;0.88;;;12.50;63.30;;;;;;5000578;28;20105;-71
2021/12/03 06:21:42;;;;;;;1.30;1.20;;;12.50;64.00;;;;;;5001533;28;20011;-71
2021/12/03 06:24:08;;;;;;;1.08;0.93;;;12.50;63.40;;;;;;5000236;28;20030;-72
2021/12/03 06:26:33;;;;;;;1.27;1.00;;;12.50;63.30;;;;;;5000178;28;20057;-72
2021/12/03 06:28:59;;;;;;;0.93;0.93;;;12.50;63.30;;;;;;5001357;28;20020;-72
2021/12/03 06:31:25;;;;;;;0.90;0.80;;;12.50;63.30;;;;;;5001357;28;20029;-71
2021/12/03 06:33:50;;;;;;;0.82;0.82;;;12.50;63.30;;;;;;5016414;28;20032;-72
2021/12/03 06:36:16;;;;;;;0.98;0.80;;;12.50;63.30;;;;;;5001269;28;20022;-72
2021/12/03 06:38:42;;;;;;;0.80;0.80;;;12.60;63.40;;;;;;5001137;28;20026;-72
2021/12/03 06:41:08;;;;;;;0.70;0.70;;;12.50;63.40;;;;;;5001111;28;20034;-72
2021/12/03 06:43:34;;;;;;;1.00;0.90;;;12.50;63.40;;;;;;5016308;28;20214;-72
2021/12/03 06:46:00;;;;;;;1.67;0.93;;;12.50;63.40;;;;;;4999804;28;20115;-72
2021/12/03 06:48:26;;;;;;;0.80;0.80;;;12.60;63.40;;;;;;5001000;28;20018;-72
2021/12/03 06:50:52;;;;;;;1.33;1.23;;;12.50;63.30;;;;;;4999680;28;20098;-72
2021/12/03 06:53:22;;;;;;;1.13;1.02;;;12.50;63.30;;;;;;5000795;28;20038;-72
2021/12/03 06:55:50;;;;;;;1.20;0.90;;;12.50;63.30;;;;;;5015911;28;20057;-72
2021/12/03 06:58:18;;;;;;;1.35;0.90;;;12.50;63.40;;;;;;5000878;28;20053;-72
2021/12/03 07:00:45;;;;;;;1.17;1.05;;;12.50;63.40;;;;;;5000636;28;20349;-72
2021/12/03 07:03:10;;;;;;;0.90;0.85;;;12.50;63.40;;;;;;5000572;28;20082;-72
2021/12/03 07:05:37;;;;;;;1.27;1.02;;;12.50;63.40;;;;;;5000670;28;20333;-73
2021/12/03 07:08:03;;;;;;;1.20;1.10;;;12.50;63.30;;;;;;5000678;28;20113;-72
2021/12/03 07:10:30;;;;;;;1.20;1.10;;;12.60;63.30;;;;;;4999322;28;20242;-73
2021/12/03 07:12:56;;;;;;;0.93;0.85;;;12.50;63.30;;;;;;5000613;28;20452;-72
2021/12/03 07:15:22;;;;;;;1.40;1.02;;;12.50;63.40;;;;;;5000460;28;20030;-72
2021/12/03 07:17:50;;;;;;;1.30;1.00;;;12.50;63.40;;;;;;5000548;28;20322;-71
2021/12/03 07:20:21;;;;;;;1.00;0.90;;;12.50;63.30;;;;;;5000385;28;20026;-71
2021/12/03 07:22:47;;;;;;;1.73;1.08;;;12.50;63.30;;;;;;5000458;28;20097;-71
2021/12/03 07:25:13;;;;;;;1.00;0.70;;;12.60;63.20;;;;;;5000325;28;20022;-72
2021/12/03 07:27:40;;;;;;;0.80;0.80;;;12.60;63.20;;;;;;5000370;28;20034;-70
2021/12/03 07:30:07;;;;;;;1.00;0.90;;;12.50;63.20;;;;;;5015684;28;20416;-72
2021/12/03 07:32:35;;;;;;;0.82;0.80;;;12.60;63.30;;;;;;4998959;28;20077;-71
2021/12/03 07:35:00;;;;;;;1.52;1.20;;;12.50;63.30;;;;;;4998906;28;20026;-71
2021/12/03 07:37:27;;;;;;;1.63;1.05;;;12.60;63.30;;;;;;5015342;28;20034;-71
2021/12/03 07:39:52;;;;;;;0.93;0.80;;;12.50;63.90;;;;;;5000053;28;20037;-71
2021/12/03 07:42:18;;;;;;;1.00;0.90;;;12.50;63.20;;;;;;5000148;28;20030;-72
2021/12/03 07:44:44;;;;;;;1.25;1.00;;;12.50;63.20;;;;;;5000126;28;20018;-72
2021/12/03 07:47:10;;;;;;;0.93;0.75;;;12.60;63.20;;;;;;5000053;28;20382;-72
2021/12/03 07:49:39;;;;;;;1.15;0.90;;;12.60;63.10;;;;;;5015216;28;20270;-72
2021/12/03 07:52:04;;;;;;;1.65;1.00;;;12.60;63.10;;;;;;4998827;28;20049;-71
2021/12/03 07:54:30;;;;;;;2.33;1.13;;;12.60;63.10;;;;;;5014948;28;20053;-71
2021/12/03 07:56:56;;;;;;;1.08;0.93;;;12.60;63.00;;;;;;4998734;28;20031;-72
2021/12/03 07:59:22;;;;;;;1.05;0.93;;;12.60;63.00;;;;;;4998686;28;20109;-71
2021/12/03 08:01:47;;;;;;;1.17;1.05;;;12.60;63.00;;;;;;4999987;28;20141;-71
2021/12/03 08:04:14;;;;;;;2.88;1.10;;;12.70;62.90;;;;;;4998584;28;20028;-72
2021/12/03 08:06:41;;;;;;;1.55;0.95;;;12.70;62.80;;;;;;4999922;28;20089;-71
2021/12/03 08:09:08;;;;;;;1.45;0.70;;;12.70;62.60;;;;;;4999952;28;20027;-71
2021/12/03 08:11:36;;;;;;;0.70;0.70;;;12.80;62.60;;;;;;4999923;28;20033;-70
2021/12/03 08:14:01;;;;;;;1.17;0.93;;;12.70;62.70;;;;;;5015021;28;20033;-70
2021/12/03 08:16:27;;;;;;;1.45;0.88;;;12.70;62.80;;;;;;5017612;28;20246;-72
2021/12/03 08:18:53;;;;;;;1.05;0.95;;;12.70;62.80;;;;;;5003681;28;20093;-71
2021/12/03 08:21:18;;;;;;;1.15;0.88;;;12.70;62.90;;;;;;5003725;28;20088;-72
2021/12/03 08:23:44;;;;;;;1.50;0.88;;;12.70;62.80;;;;;;5003679;28;20030;-72
2021/12/03 08:26:10;;;;;;;1.67;1.00;;;12.70;62.80;;;;;;5003839;28;20086;-71
2021/12/03 08:28:36;;;;;;;1.23;0.85;;;12.70;62.80;;;;;;5003638;28;20364;-72
2021/12/03 08:31:01;;;;;;;1.33;0.88;;;12.70;62.60;;;;;;5003457;28;20026;-71
2021/12/03 08:33:27;;;;;;;1.33;1.00;;;12.80;62.50;;;;;;5002225;28;20026;-72
2021/12/03 08:35:53;;;;;;;1.58;1.10;;;12.80;62.40;;;;;;5003461;28;20049;-72
2021/12/03 08:38:19;;;;;;;1.08;0.98;;;12.80;62.30;;;;;;5003412;28;20033;-71
2021/12/03 08:40:45;;;;;;;0.95;0.95;;;12.90;62.20;;;;;;5003328;28;20099;-71
2021/12/03 08:43:11;;;;;;;1.60;1.08;;;12.90;62.20;;;;;;5003393;28;20104;-72
2021/12/03 08:45:38;;;;;;;1.30;1.02;;;13.00;62.10;;;;;;5003414;28;20448;-70
2021/12/03 08:48:05;;;;;;;0.95;0.82;;;13.00;62.00;;;;;;5003181;28;20030;-71
2021/12/03 08:50:36;;;;;;;1.25;1.00;;;13.00;62.00;;;;;;5003197;28;20030;-71
2021/12/03 08:55:46;;;;;;;1.50;1.20;;;12.90;62.10;;;;;;5003489;28;20026;-71
2021/12/03 08:58:14;;;;;;;0.70;0.70;;;12.90;62.30;;;;;;5001721;28;20222;-72
2021/12/03 09:00:41;;;;;;;1.23;1.00;;;12.80;62.40;;;;;;5002940;28;20022;-71
2021/12/03 09:03:06;;;;;;;0.90;0.85;;;12.80;62.50;;;;;;5002896;28;20022;-72
2021/12/03 09:05:37;;;;;;;1.73;1.30;;;12.80;62.50;;;;;;5002763;28;20022;-72
2021/12/03 09:08:03;;;;;;;1.48;1.08;;;12.90;62.40;;;;;;5002962;28;20015;-72
2021/12/03 09:10:29;;;;;;;1.38;1.00;;;13.00;62.20;;;;;;5001692;28;20033;-72
2021/12/03 09:12:55;;;;;;;1.55;1.25;;;13.10;61.60;;;;;;5002843;28;20241;-72
2021/12/03 09:15:37;;;;;;;1.00;0.68;;;13.20;61.20;;;;;;5002669;28;20077;-72
2021/12/03 09:20:52;;;;;;;0.95;0.80;;;13.20;61.40;;;;;;5002365;28;20022;-72
2021/12/03 09:26:08;;;;;;;1.10;0.77;;;13.30;60.50;;;;;;5002188;28;20038;-71
2021/12/03 09:28:36;;;;;;;1.00;0.90;;;13.30;60.50;;;;;;5001574;28;20093;-72
2021/12/03 09:31:04;;;;;;;1.52;0.98;;;13.30;60.50;;;;;;5002411;28;20089;-71
2021/12/03 09:33:31;;;;;;;1.60;1.10;;;13.30;60.60;;;;;;5001052;28;20093;-72
2021/12/03 09:36:02;;;;;;;1.10;1.00;;;13.30;60.60;;;;;;5002384;28;20022;-71
2021/12/03 09:38:31;;;;;;;1.00;0.90;;;13.30;60.70;;;;;;5002285;28;20029;-72
2021/12/03 09:41:10;;;;;;;1.48;0.90;;;13.40;60.70;;;;;;5002172;28;20026;-72
2021/12/03 09:43:39;;;;;;;1.10;0.90;;;13.30;60.70;;;;;;5002146;28;20071;-72
2021/12/03 09:46:17;;;;;;;1.25;1.15;;;13.30;60.70;;;;;;5002048;28;20029;-72
2021/12/03 09:52:03;;;;;;;1.05;0.68;;;13.30;60.70;;;;;;4989985;28;20081;-71
2021/12/03 09:57:05;;;;;;;0.70;0.55;;;13.30;60.40;;;;;;5002108;28;20023;-72
2021/12/03 10:02:13;;;;;;;1.88;1.35;;;13.40;60.60;;;;;;5001832;28;20175;-72
2021/12/03 10:15:11;;;;;;;0.95;0.85;;;13.40;60.10;;;;;;5001859;28;20061;-72
2021/12/03 10:17:46;;;;;;;1.20;1.00;;;13.40;60.00;;;;;;5016604;28;20040;-72
2021/12/03 10:39:38;;;;;;;1.00;0.90;;;13.60;60.00;;;;;;5000694;28;20022;-71
2021/12/03 10:42:18;;;;;;;1.70;0.93;;;13.50;60.00;;;;;;5001026;28;20014;-72
2021/12/03 10:56:24;;;;;;;0.98;0.90;;;13.50;60.30;;;;;;5000905;28;20094;-71
2021/12/03 12:25:45;;;;;;;1.10;0.82;;;13.60;60.50;;;;;;4999820;28;20037;-71
2021/12/03 12:28:56;;;;;;;1.52;1.00;;;13.60;60.60;;;;;;4995791;28;20038;-72
2021/12/03 12:40:24;;;;;;;1.33;1.15;;;13.60;60.30;;;;;;4999584;28;20028;-71
2021/12/03 14:10:35;;;;;;;1.10;0.80;;;13.50;60.90;;;;;;5002011;28;20038;-72
2021/12/03 14:55:44;;;;;;;0.93;0.88;;;13.50;60.50;;;;;;5000847;28;20018;-71
2021/12/03 14:58:19;;;;;;;0.73;0.65;;;13.50;60.30;;;;;;5000825;28;20352;-72
2021/12/03 15:01:01;;;;;;;1.05;0.95;;;13.50;60.80;;;;;;5000684;28;20030;-72
2021/12/03 15:08:58;;;;;;;1.40;1.10;;;13.50;60.80;;;;;;5000602;28;20014;-72
2021/12/03 15:22:42;;;;;;;1.45;1.00;;;13.50;60.90;;;;;;5000430;28;20022;-72
2021/12/03 15:25:00;;;;;;;1.27;0.77;;;13.50;60.90;;;;;;4998191;28;20041;-72
2021/12/03 15:35:12;;;;;;;0.75;0.60;;;13.50;60.90;;;;;;5000193;28;19910;-71
2021/12/03 16:05:13;;;;;;;1.20;0.82;;;13.40;61.00;;;;;;4999953;28;20068;-72
2021/12/03 16:10:27;;;;;;;1.40;0.93;;;13.50;61.00;;;;;;4999909;28;20349;-71
2021/12/03 16:13:10;;;;;;;1.27;0.90;;;13.50;60.80;;;;;;4998497;28;20033;-71
2021/12/03 16:23:54;;;;;;;0.65;0.65;;;13.40;60.70;;;;;;4999715;28;20025;-72
2021/12/03 16:53:27;;;;;;;1.13;0.98;;;13.20;61.20;;;;;;5003024;28;20046;-72
2021/12/03 16:56:08;;;;;;;1.27;0.93;;;13.20;61.30;;;;;;5002938;28;20022;-73
2021/12/03 16:58:35;;;;;;;1.20;0.95;;;13.20;61.20;;;;;;5018433;28;20254;-72
2021/12/03 17:01:09;;;;;;;1.20;1.00;;;13.10;61.40;;;;;;5001552;28;20038;-72
2021/12/03 17:03:59;;;;;;;1.45;0.90;;;13.10;61.40;;;;;;5002934;28;20019;-72
2021/12/03 17:19:21;;;;;;;1.45;0.80;;;13.00;61.30;;;;;;5002910;28;20030;-71
2021/12/03 17:48:59;;;;;;;1.15;0.90;;;13.10;61.10;;;;;;5001238;28;20022;-72
2021/12/03 17:56:36;;;;;;;1.23;1.13;;;12.90;61.40;;;;;;5001953;28;20045;-71
2021/12/03 17:59:15;;;;;;;1.08;0.98;;;12.90;62.20;;;;;;5001867;28;20030;-71
2021/12/03 18:04:39;;;;;;;1.13;0.80;;;12.80;61.80;;;;;;5001868;28;20098;-71
2021/12/03 18:52:44;;;;;;;1.48;0.90;;;12.70;61.70;;;;;;5000921;28;20041;-71
2021/12/03 18:55:04;;;;;;;2.33;0.88;;;12.70;61.80;;;;;;5000263;28;20049;-71
2021/12/03 18:57:33;;;;;;;0.93;0.88;;;12.80;61.80;;;;;;5015894;28;20033;-71
2021/12/03 19:00:04;;;;;;;1.15;0.95;;;12.80;61.60;;;;;;4999072;28;20057;-71
2021/12/03 19:02:30;;;;;;;0.60;0.60;;;12.80;61.60;;;;;;5000784;28;20045;-72
2021/12/03 19:05:12;;;;;;;0.80;0.80;;;12.80;61.50;;;;;;5000775;28;20026;-72
2021/12/03 19:07:48;;;;;;;1.30;0.93;;;12.80;61.60;;;;;;4999472;28;20068;-71
2021/12/03 19:10:21;;;;;;;1.75;1.15;;;12.80;61.60;;;;;;5000543;28;20349;-71
2021/12/03 19:12:56;;;;;;;1.25;1.00;;;12.80;61.70;;;;;;5000610;28;20025;-71
2021/12/03 19:15:21;;;;;;;1.13;1.02;;;12.70;61.70;;;;;;5000474;28;20042;-72
2021/12/03 19:17:48;;;;;;;0.90;0.90;;;12.70;61.70;;;;;;5000540;28;20018;-71
2021/12/03 19:20:18;;;;;;;2.17;1.00;;;12.70;61.80;;;;;;5000332;28;20030;-72
2021/12/03 19:22:43;;;;;;;2.13;1.10;;;12.70;61.90;;;;;;5000472;28;20030;-71
2021/12/03 19:25:09;;;;;;;1.42;0.90;;;12.70;61.90;;;;;;4999180;28;20101;-70
2021/12/03 19:27:37;;;;;;;1.60;1.27;;;12.70;62.00;;;;;;5000325;28;20026;-71
2021/12/03 19:30:04;;;;;;;1.58;1.00;;;12.70;62.00;;;;;;4998960;28;20093;-72
2021/12/03 19:32:31;;;;;;;0.90;0.70;;;12.60;61.90;;;;;;5000311;28;20049;-71
2021/12/03 19:34:58;;;;;;;2.00;1.20;;;12.70;62.10;;;;;;5000244;28;20130;-72
2021/12/03 19:37:27;;;;;;;1.35;1.10;;;12.60;62.10;;;;;;5000205;28;20358;-71
2021/12/03 19:39:54;;;;;;;0.93;0.77;;;12.70;62.00;;;;;;5000043;28;20506;-71
2021/12/03 19:42:24;;;;;;;1.88;1.20;;;12.70;61.80;;;;;;4998872;28;20018;-72
2021/12/03 19:44:54;;;;;;;1.48;1.00;;;12.70;61.70;;;;;;5000187;28;20154;-71
2021/12/03 19:47:29;;;;;;;1.60;0.70;;;12.70;61.80;;;;;;5000137;28;20342;-71
2021/12/03 19:52:43;;;;;;;1.00;0.80;;;12.70;62.00;;;;;;5000020;28;20065;-72
2021/12/03 19:55:11;;;;;;;1.13;1.02;;;12.60;62.00;;;;;;4999863;28;20104;-72
2021/12/03 19:57:37;;;;;;;0.80;0.68;;;12.70;62.00;;;;;;4999989;28;20022;-71
2021/12/03 20:00:05;;;;;;;1.30;1.15;;;12.70;62.00;;;;;;5015012;28;20037;-70
2021/12/03 20:02:31;;;;;;;1.15;1.05;;;12.70;62.00;;;;;;4999920;28;20499;-71
2021/12/03 20:04:58;;;;;;;1.13;0.95;;;12.60;62.00;;;;;;4998619;28;20022;-71
2021/12/03 20:07:24;;;;;;;1.45;1.10;;;12.60;62.10;;;;;;4999867;28;20026;-72
2021/12/03 20:10:01;;;;;;;0.50;0.50;;;12.60;62.10;;;;;;4999877;28;20060;-72
2021/12/03 20:12:31;;;;;;;1.05;0.95;;;12.60;62.10;;;;;;5001364;28;20026;-71
2021/12/03 20:14:56;;;;;;;1.33;0.90;;;12.60;62.10;;;;;;5003807;28;20026;-73
2021/12/03 20:17:27;;;;;;;1.10;1.00;;;12.60;62.10;;;;;;5003765;28;20032;-72
2021/12/03 20:19:56;;;;;;;1.15;1.05;;;12.60;62.10;;;;;;5003706;28;20018;-72
2021/12/03 20:22:42;;;;;;;1.02;0.90;;;12.60;62.00;;;;;;5003752;28;20026;-72
2021/12/03 20:28:12;;;;;;;1.23;1.10;;;12.60;62.00;;;;;;5003868;28;20093;-72
2021/12/03 20:30:45;;;;;;;1.13;0.90;;;12.60;62.10;;;;;;5002392;28;20075;-72
2021/12/03 20:33:41;;;;;;;1.58;1.05;;;12.60;62.10;;;;;;5003495;28;20088;-71
2021/12/03 20:39:16;;;;;;;2.65;1.52;;;12.60;62.10;;;;;;4962145;29;20042;-72
2021/12/03 20:49:54;;;;;;;0.90;0.80;;;12.50;62.20;;;;;;5003224;28;20022;-71
2021/12/03 21:11:02;;;;;;;1.58;1.30;;;12.50;62.10;;;;;;5002969;28;20116;-71
2021/12/03 21:13:31;;;;;;;1.02;0.93;;;12.50;62.20;;;;;;5001578;28;20022;-72
2021/12/03 21:21:10;;;;;;;1.48;1.13;;;12.50;62.20;;;;;;5002620;28;20384;-71